sensor_id;sensor_type;location;lat;lon;timestamp;pressure;altitude;pressure_sealevel;temperature;humidity
60437;BME280;46289;51.992;4.498;2023-07-13T00:01:18;101478.16;;;17.12;86.55
60437;BME280;46289;51.992;4.498;2023-07-13T00:03:24;101478.22;;;17.10;87.13
60437;BME280;46289;51.992;4.498;2023-07-13T00:05:32;101476.41;;;17.11;86.38
60437;BME280;46289;51.992;4.498;2023-07-13T00:07:37;101484.22;;;17.14;86.49
60437;BME280;46289;51.992;4.498;2023-07-13T00:09:44;101471.97;;;17.11;86.43
60437;BME280;46289;51.992;4.498;2023-07-13T00:11:51;101474.34;;;17.16;85.94
60437;BME280;46289;51.992;4.498;2023-07-13T00:13:56;101484.63;;;17.22;85.25
60437;BME280;46289;51.992;4.498;2023-07-13T00:16:01;101481.28;;;17.19;84.38
60437;BME280;46289;51.992;4.498;2023-07-13T00:18:09;101487.63;;;17.16;84.82
60437;BME280;46289;51.992;4.498;2023-07-13T00:20:14;101482.13;;;17.19;84.38
60437;BME280;46289;51.992;4.498;2023-07-13T00:22:19;101495.34;;;17.21;84.18
60437;BME280;46289;51.992;4.498;2023-07-13T00:24:28;101483.00;;;17.20;83.73
60437;BME280;46289;51.992;4.498;2023-07-13T00:26:36;101484.63;;;17.22;83.68
60437;BME280;46289;51.992;4.498;2023-07-13T00:28:43;101482.91;;;17.21;83.25
60437;BME280;46289;51.992;4.498;2023-07-13T00:30:48;101482.84;;;17.23;83.41
60437;BME280;46289;51.992;4.498;2023-07-13T00:32:54;101489.44;;;17.16;83.41
60437;BME280;46289;51.992;4.498;2023-07-13T00:35:21;101486.69;;;17.17;83.52
60437;BME280;46289;51.992;4.498;2023-07-13T00:37:26;101485.81;;;17.17;83.16
60437;BME280;46289;51.992;4.498;2023-07-13T00:39:35;101491.25;;;17.15;83.58
60437;BME280;46289;51.992;4.498;2023-07-13T00:41:41;101480.50;;;17.17;83.79
60437;BME280;46289;51.992;4.498;2023-07-13T00:43:46;101481.38;;;17.17;83.75
60437;BME280;46289;51.992;4.498;2023-07-13T00:46:20;101478.16;;;17.12;83.79
60437;BME280;46289;51.992;4.498;2023-07-13T00:48:31;101481.06;;;17.07;83.25
60437;BME280;46289;51.992;4.498;2023-07-13T00:50:38;101487.84;;;16.97;83.92
60437;BME280;46289;51.992;4.498;2023-07-13T00:52:49;101480.72;;;16.98;84.29
60437;BME280;46289;51.992;4.498;2023-07-13T00:54:56;101483.72;;;16.92;84.63
60437;BME280;46289;51.992;4.498;2023-07-13T00:57:05;101488.25;;;16.89;84.77
60437;BME280;46289;51.992;4.498;2023-07-13T00:59:13;101487.50;;;16.87;84.89
60437;BME280;46289;51.992;4.498;2023-07-13T01:01:21;101484.16;;;16.84;85.09
60437;BME280;46289;51.992;4.498;2023-07-13T01:03:26;101482.53;;;16.81;84.94
60437;BME280;46289;51.992;4.498;2023-07-13T01:05:33;101483.22;;;16.85;85.41
60437;BME280;46289;51.992;4.498;2023-07-13T01:07:43;101494.00;;;16.82;85.60
60437;BME280;46289;51.992;4.498;2023-07-13T01:09:49;101490.69;;;16.78;85.77
60437;BME280;46289;51.992;4.498;2023-07-13T01:11:54;101497.16;;;16.73;85.26
60437;BME280;46289;51.992;4.498;2023-07-13T01:14:05;101489.69;;;16.63;85.82
60437;BME280;46289;51.992;4.498;2023-07-13T01:16:14;101494.81;;;16.66;85.65
60437;BME280;46289;51.992;4.498;2023-07-13T01:18:22;101500.31;;;16.63;85.23
60437;BME280;46289;51.992;4.498;2023-07-13T01:20:29;101495.34;;;16.57;85.15
60437;BME280;46289;51.992;4.498;2023-07-13T01:22:34;101491.91;;;16.55;84.39
60437;BME280;46289;51.992;4.498;2023-07-13T01:24:42;101502.69;;;16.52;84.01
60437;BME280;46289;51.992;4.498;2023-07-13T01:26:48;101509.81;;;16.52;83.91
60437;BME280;46289;51.992;4.498;2023-07-13T01:28:53;101511.75;;;16.48;83.99
60437;BME280;46289;51.992;4.498;2023-07-13T01:30:57;101510.06;;;16.47;83.74
60437;BME280;46289;51.992;4.498;2023-07-13T01:33:05;101513.06;;;16.41;84.16
60437;BME280;46289;51.992;4.498;2023-07-13T01:35:09;101510.47;;;16.39;84.04
60437;BME280;46289;51.992;4.498;2023-07-13T01:37:14;101512.44;;;16.36;84.67
60437;BME280;46289;51.992;4.498;2023-07-13T01:39:23;101510.88;;;16.32;83.91
60437;BME280;46289;51.992;4.498;2023-07-13T01:41:30;101509.97;;;16.33;84.20
60437;BME280;46289;51.992;4.498;2023-07-13T01:43:37;101513.94;;;16.24;83.86
60437;BME280;46289;51.992;4.498;2023-07-13T01:45:45;101517.63;;;16.21;83.66
60437;BME280;46289;51.992;4.498;2023-07-13T01:47:50;101515.97;;;16.19;83.20
60437;BME280;46289;51.992;4.498;2023-07-13T01:49:55;101517.53;;;16.23;82.53
60437;BME280;46289;51.992;4.498;2023-07-13T01:52:00;101514.22;;;16.19;82.27
60437;BME280;46289;51.992;4.498;2023-07-13T01:54:06;101515.13;;;16.18;82.36
60437;BME280;46289;51.992;4.498;2023-07-13T01:56:14;101525.75;;;16.18;82.09
60437;BME280;46289;51.992;4.498;2023-07-13T01:58:19;101514.63;;;16.12;82.60
60437;BME280;46289;51.992;4.498;2023-07-13T02:00:24;101522.72;;;16.09;82.08
60437;BME280;46289;51.992;4.498;2023-07-13T02:02:30;101516.66;;;16.07;82.23
60437;BME280;46289;51.992;4.498;2023-07-13T02:04:37;101526.47;;;16.05;82.43
60437;BME280;46289;51.992;4.498;2023-07-13T02:06:42;101521.16;;;16.05;82.87
60437;BME280;46289;51.992;4.498;2023-07-13T02:08:47;101527.50;;;16.02;82.51
60437;BME280;46289;51.992;4.498;2023-07-13T02:10:52;101523.13;;;16.01;82.79
60437;BME280;46289;51.992;4.498;2023-07-13T02:13:05;101519.59;;;16.00;82.77
60437;BME280;46289;51.992;4.498;2023-07-13T02:15:10;101521.34;;;16.01;82.86
60437;BME280;46289;51.992;4.498;2023-07-13T02:17:13;101520.31;;;16.04;83.47
60437;BME280;46289;51.992;4.498;2023-07-13T02:19:18;101519.38;;;16.05;83.08
60437;BME280;46289;51.992;4.498;2023-07-13T02:21:24;101521.97;;;16.07;83.44
60437;BME280;46289;51.992;4.498;2023-07-13T02:23:32;101516.66;;;16.07;84.04
60437;BME280;46289;51.992;4.498;2023-07-13T02:25:37;101511.50;;;16.04;84.07
60437;BME280;46289;51.992;4.498;2023-07-13T02:27:43;101512.84;;;15.95;84.40
60437;BME280;46289;51.992;4.498;2023-07-13T02:29:51;101519.78;;;15.97;84.75
60437;BME280;46289;51.992;4.498;2023-07-13T02:31:56;101518.84;;;15.98;85.49
60437;BME280;46289;51.992;4.498;2023-07-13T02:34:01;101514.25;;;16.02;86.00
60437;BME280;46289;51.992;4.498;2023-07-13T02:36:07;101520.38;;;16.02;86.28
60437;BME280;46289;51.992;4.498;2023-07-13T02:38:13;101521.09;;;16.06;86.23
60437;BME280;46289;51.992;4.498;2023-07-13T02:40:18;101521.09;;;16.06;86.81
60437;BME280;46289;51.992;4.498;2023-07-13T02:42:23;101516.88;;;16.02;87.12
60437;BME280;46289;51.992;4.498;2023-07-13T02:44:28;101523.81;;;16.05;87.83
60437;BME280;46289;51.992;4.498;2023-07-13T02:46:36;101525.63;;;16.04;88.06
60437;BME280;46289;51.992;4.498;2023-07-13T02:48:42;101521.09;;;16.06;88.73
60437;BME280;46289;51.992;4.498;2023-07-13T02:50:47;101525.53;;;16.06;88.92
60437;BME280;46289;51.992;4.498;2023-07-13T02:52:52;101519.47;;;16.04;89.63
60437;BME280;46289;51.992;4.498;2023-07-13T02:54:59;101518.44;;;16.06;90.31
60437;BME280;46289;51.992;4.498;2023-07-13T02:57:06;101518.34;;;16.08;90.66
60437;BME280;46289;51.992;4.498;2023-07-13T02:59:11;101521.84;;;16.08;91.00
60437;BME280;46289;51.992;4.498;2023-07-13T03:01:17;101517.56;;;16.06;90.66
60437;BME280;46289;51.992;4.498;2023-07-13T03:03:26;101532.41;;;16.10;91.08
60437;BME280;46289;51.992;4.498;2023-07-13T03:05:32;101526.25;;;16.09;91.41
60437;BME280;46289;51.992;4.498;2023-07-13T03:07:37;101527.00;;;16.11;91.71
60437;BME280;46289;51.992;4.498;2023-07-13T03:09:42;101529.81;;;16.08;91.70
60437;BME280;46289;51.992;4.498;2023-07-13T03:11:47;101530.53;;;16.12;92.08
60437;BME280;46289;51.992;4.498;2023-07-13T03:13:52;101533.06;;;16.13;92.73
60437;BME280;46289;51.992;4.498;2023-07-13T03:15:59;101534.94;;;16.11;93.34
60437;BME280;46289;51.992;4.498;2023-07-13T03:18:07;101532.06;;;16.16;93.06
60437;BME280;46289;51.992;4.498;2023-07-13T03:20:16;101531.28;;;16.14;93.41
60437;BME280;46289;51.992;4.498;2023-07-13T03:22:21;101525.13;;;16.13;93.27
60437;BME280;46289;51.992;4.498;2023-07-13T03:24:26;101520.78;;;16.12;93.52
60437;BME280;46289;51.992;4.498;2023-07-13T03:26:31;101525.22;;;16.12;93.54
60437;BME280;46289;51.992;4.498;2023-07-13T03:28:37;101520.59;;;16.15;93.98
60437;BME280;46289;51.992;4.498;2023-07-13T03:30:43;101535.66;;;16.15;94.14
60437;BME280;46289;51.992;4.498;2023-07-13T03:32:48;101529.25;;;16.19;94.43
60437;BME280;46289;51.992;4.498;2023-07-13T03:34:53;101532.78;;;16.19;94.12
60437;BME280;46289;51.992;4.498;2023-07-13T03:37:05;101530.03;;;16.21;93.97
60437;BME280;46289;51.992;4.498;2023-07-13T03:39:10;101529.19;;;16.20;93.88
60437;BME280;46289;51.992;4.498;2023-07-13T03:41:15;101531.03;;;16.18;94.95
60437;BME280;46289;51.992;4.498;2023-07-13T03:43:20;101527.72;;;16.15;94.80
60437;BME280;46289;51.992;4.498;2023-07-13T03:45:25;101534.72;;;16.16;94.01
60437;BME280;46289;51.992;4.498;2023-07-13T03:47:30;101534.72;;;16.16;94.64
60437;BME280;46289;51.992;4.498;2023-07-13T03:49:35;101543.38;;;16.19;94.85
60437;BME280;46289;51.992;4.498;2023-07-13T03:51:41;101539.94;;;16.17;95.34
60437;BME280;46289;51.992;4.498;2023-07-13T03:53:49;101540.72;;;16.19;95.05
60437;BME280;46289;51.992;4.498;2023-07-13T03:55:54;101534.66;;;16.17;95.17
60437;BME280;46289;51.992;4.498;2023-07-13T04:00:23;101546.16;;;16.16;94.52
60437;BME280;46289;51.992;4.498;2023-07-13T04:02:29;101548.75;;;16.18;95.03
60437;BME280;46289;51.992;4.498;2023-07-13T04:04:33;101551.25;;;16.21;95.05
60437;BME280;46289;51.992;4.498;2023-07-13T04:06:43;101558.19;;;16.23;94.75
60437;BME280;46289;51.992;4.498;2023-07-13T04:08:52;101547.41;;;16.27;94.64
60437;BME280;46289;51.992;4.498;2023-07-13T04:11:03;101561.63;;;16.26;94.61
60437;BME280;46289;51.992;4.498;2023-07-13T04:13:08;101558.63;;;16.32;94.74
60437;BME280;46289;51.992;4.498;2023-07-13T04:15:13;101557.31;;;16.40;94.11
60437;BME280;46289;51.992;4.498;2023-07-13T04:17:19;101559.00;;;16.41;94.23
60437;BME280;46289;51.992;4.498;2023-07-13T04:19:26;101553.63;;;16.43;93.87
60437;BME280;46289;51.992;4.498;2023-07-13T04:21:32;101563.78;;;16.51;93.88
60437;BME280;46289;51.992;4.498;2023-07-13T04:23:35;101553.78;;;16.56;93.65
60437;BME280;46289;51.992;4.498;2023-07-13T04:25:46;101564.53;;;16.70;93.06
60437;BME280;46289;51.992;4.498;2023-07-13T04:27:52;101560.00;;;16.72;92.52
60437;BME280;46289;51.992;4.498;2023-07-13T04:29:59;101563.50;;;16.73;92.13
60437;BME280;46289;51.992;4.498;2023-07-13T04:32:05;101565.22;;;16.74;92.27
60437;BME280;46289;51.992;4.498;2023-07-13T04:34:10;101562.66;;;16.72;92.05
60437;BME280;46289;51.992;4.498;2023-07-13T04:36:16;101571.38;;;16.74;91.97
60437;BME280;46289;51.992;4.498;2023-07-13T04:38:18;101568.66;;;16.76;91.83
60437;BME280;46289;51.992;4.498;2023-07-13T04:40:23;101572.13;;;16.78;91.62
60437;BME280;46289;51.992;4.498;2023-07-13T04:42:31;101580.28;;;16.73;91.61
60437;BME280;46289;51.992;4.498;2023-07-13T04:44:37;101581.91;;;16.76;91.53
60437;BME280;46289;51.992;4.498;2023-07-13T04:46:39;101577.16;;;16.82;90.85
60437;BME280;46289;51.992;4.498;2023-07-13T04:48:45;101572.19;;;16.92;90.56
60437;BME280;46289;51.992;4.498;2023-07-13T04:50:54;101569.03;;;17.01;90.22
60437;BME280;46289;51.992;4.498;2023-07-13T04:53:00;101573.03;;;17.08;89.50
60437;BME280;46289;51.992;4.498;2023-07-13T04:55:07;101579.91;;;17.13;89.39
60437;BME280;46289;51.992;4.498;2023-07-13T04:57:12;101581.19;;;17.21;88.31
60437;BME280;46289;51.992;4.498;2023-07-13T04:59:20;101570.72;;;17.34;87.71
60437;BME280;46289;51.992;4.498;2023-07-13T05:01:25;101574.53;;;17.60;86.12
60437;BME280;46289;51.992;4.498;2023-07-13T05:03:31;101584.69;;;17.84;85.12
60437;BME280;46289;51.992;4.498;2023-07-13T05:05:38;101578.22;;;18.04;84.18
60437;BME280;46289;51.992;4.498;2023-07-13T05:07:43;101584.28;;;18.06;83.84
60437;BME280;46289;51.992;4.498;2023-07-13T05:09:50;101579.44;;;18.12;83.10
60437;BME280;46289;51.992;4.498;2023-07-13T05:11:56;101582.22;;;18.39;81.98
60437;BME280;46289;51.992;4.498;2023-07-13T05:14:01;101584.59;;;18.44;80.73
60437;BME280;46289;51.992;4.498;2023-07-13T05:16:08;101587.47;;;18.41;80.72
60437;BME280;46289;51.992;4.498;2023-07-13T05:18:13;101590.03;;;18.28;81.25
60437;BME280;46289;51.992;4.498;2023-07-13T05:20:19;101593.22;;;18.19;81.05
60437;BME280;46289;51.992;4.498;2023-07-13T05:22:24;101592.47;;;18.17;80.96
60437;BME280;46289;51.992;4.498;2023-07-13T05:24:32;101596.47;;;18.24;81.06
60437;BME280;46289;51.992;4.498;2023-07-13T05:26:37;101596.84;;;18.32;79.66
60437;BME280;46289;51.992;4.498;2023-07-13T05:28:42;101591.25;;;18.23;79.46
60437;BME280;46289;51.992;4.498;2023-07-13T05:30:48;101598.91;;;18.13;79.93
60437;BME280;46289;51.992;4.498;2023-07-13T05:32:56;101598.16;;;18.11;80.22
60437;BME280;46289;51.992;4.498;2023-07-13T05:35:01;101600.22;;;18.06;80.58
60437;BME280;46289;51.992;4.498;2023-07-13T05:37:08;101608.91;;;18.09;79.74
60437;BME280;46289;51.992;4.498;2023-07-13T05:39:13;101607.41;;;18.19;79.11
60437;BME280;46289;51.992;4.498;2023-07-13T05:41:18;101602.56;;;18.26;79.74
60437;BME280;46289;51.992;4.498;2023-07-13T05:43:23;101606.75;;;18.45;78.49
60437;BME280;46289;51.992;4.498;2023-07-13T05:45:29;101607.16;;;18.96;77.13
60437;BME280;46289;51.992;4.498;2023-07-13T05:47:34;101610.66;;;18.96;77.11
60437;BME280;46289;51.992;4.498;2023-07-13T05:49:43;101610.22;;;18.75;77.08
60437;BME280;46289;51.992;4.498;2023-07-13T05:51:48;101612.56;;;18.80;77.66
60437;BME280;46289;51.992;4.498;2023-07-13T05:53:55;101618.78;;;18.80;76.97
60437;BME280;46289;51.992;4.498;2023-07-13T05:56:00;101614.38;;;18.65;77.43
60437;BME280;46289;51.992;4.498;2023-07-13T05:58:06;101612.94;;;18.59;77.65
60437;BME280;46289;51.992;4.498;2023-07-13T06:00:12;101625.09;;;18.49;77.81
60437;BME280;46289;51.992;4.498;2023-07-13T06:02:18;101622.13;;;18.39;78.10
60437;BME280;46289;51.992;4.498;2023-07-13T06:04:23;101622.97;;;18.26;80.80
60437;BME280;46289;51.992;4.498;2023-07-13T06:06:31;101626.88;;;18.20;81.93
60437;BME280;46289;51.992;4.498;2023-07-13T06:08:37;101633.09;;;18.05;82.98
60437;BME280;46289;51.992;4.498;2023-07-13T06:10:43;101633.50;;;18.13;82.40
60437;BME280;46289;51.992;4.498;2023-07-13T06:12:48;101632.34;;;18.03;82.43
60437;BME280;46289;51.992;4.498;2023-07-13T06:14:53;101636.81;;;18.02;80.93
60437;BME280;46289;51.992;4.498;2023-07-13T06:16:59;101646.59;;;18.02;81.27
60437;BME280;46289;51.992;4.498;2023-07-13T06:19:05;101640.50;;;17.99;81.86
60437;BME280;46289;51.992;4.498;2023-07-13T06:21:12;101643.56;;;18.08;82.00
60437;BME280;46289;51.992;4.498;2023-07-13T06:23:18;101646.78;;;18.57;81.07
60437;BME280;46289;51.992;4.498;2023-07-13T06:25:23;101651.34;;;18.55;81.18
60437;BME280;46289;51.992;4.498;2023-07-13T06:27:31;101641.44;;;18.72;79.20
60437;BME280;46289;51.992;4.498;2023-07-13T06:29:36;101651.25;;;18.57;79.12
60437;BME280;46289;51.992;4.498;2023-07-13T06:31:41;101652.56;;;18.50;78.89
60437;BME280;46289;51.992;4.498;2023-07-13T06:33:50;101655.16;;;18.51;77.38
60437;BME280;46289;51.992;4.498;2023-07-13T06:35:55;101657.34;;;18.59;76.41
60437;BME280;46289;51.992;4.498;2023-07-13T06:38:01;101649.25;;;18.60;76.54
60437;BME280;46289;51.992;4.498;2023-07-13T06:40:10;101651.25;;;18.57;75.32
60437;BME280;46289;51.992;4.498;2023-07-13T06:42:16;101650.88;;;18.63;75.50
60437;BME280;46289;51.992;4.498;2023-07-13T06:44:21;101651.44;;;18.68;75.42
60437;BME280;46289;51.992;4.498;2023-07-13T06:46:28;101658.00;;;18.62;73.68
60437;BME280;46289;51.992;4.498;2023-07-13T06:48:33;101653.47;;;18.79;73.89
60437;BME280;46289;51.992;4.498;2023-07-13T06:50:38;101658.25;;;18.88;73.13
60437;BME280;46289;51.992;4.498;2023-07-13T06:52:43;101650.88;;;19.06;72.82
60437;BME280;46289;51.992;4.498;2023-07-13T06:54:48;101656.47;;;19.16;73.10
60437;BME280;46289;51.992;4.498;2023-07-13T06:56:56;101654.09;;;19.11;72.63
60437;BME280;46289;51.992;4.498;2023-07-13T06:59:01;101667.16;;;19.01;72.68
60437;BME280;46289;51.992;4.498;2023-07-13T07:01:07;101662.41;;;19.48;70.73
60437;BME280;46289;51.992;4.498;2023-07-13T07:03:12;101663.25;;;20.55;69.45
60437;BME280;46289;51.992;4.498;2023-07-13T07:05:18;101665.19;;;21.29;67.18
60437;BME280;46289;51.992;4.498;2023-07-13T07:07:24;101664.66;;;21.36;65.59
60437;BME280;46289;51.992;4.498;2023-07-13T07:09:32;101668.25;;;22.20;63.96
60437;BME280;46289;51.992;4.498;2023-07-13T07:11:37;101665.81;;;21.69;65.27
60437;BME280;46289;51.992;4.498;2023-07-13T07:14:05;101653.25;;;21.09;65.22
60437;BME280;46289;51.992;4.498;2023-07-13T07:16:10;101675.56;;;21.46;63.63
60437;BME280;46289;51.992;4.498;2023-07-13T07:18:15;101670.38;;;21.56;61.90
60437;BME280;46289;51.992;4.498;2023-07-13T07:20:23;101678.44;;;20.80;63.71
60437;BME280;46289;51.992;4.498;2023-07-13T07:22:28;101668.38;;;20.71;64.95
60437;BME280;46289;51.992;4.498;2023-07-13T07:24:34;101677.47;;;20.69;64.44
60437;BME280;46289;51.992;4.498;2023-07-13T07:26:39;101676.66;;;21.43;63.92
60437;BME280;46289;51.992;4.498;2023-07-13T07:28:47;101683.16;;;21.87;61.70
60437;BME280;46289;51.992;4.498;2023-07-13T07:31:15;101683.34;;;21.97;59.80
60437;BME280;46289;51.992;4.498;2023-07-13T07:33:23;101679.13;;;22.06;60.17
60437;BME280;46289;51.992;4.498;2023-07-13T07:35:31;101678.75;;;22.34;60.35
60437;BME280;46289;51.992;4.498;2023-07-13T07:37:56;101679.56;;;23.27;58.78
60437;BME280;46289;51.992;4.498;2023-07-13T07:40:01;101679.66;;;22.57;58.83
60437;BME280;46289;51.992;4.498;2023-07-13T07:42:13;101684.63;;;21.80;60.74
60437;BME280;46289;51.992;4.498;2023-07-13T07:44:23;101695.34;;;21.43;61.59
60437;BME280;46289;51.992;4.498;2023-07-13T07:46:33;101693.72;;;20.91;63.48
60437;BME280;46289;51.992;4.498;2023-07-13T07:48:42;101695.00;;;20.73;64.25
60437;BME280;46289;51.992;4.498;2023-07-13T07:50:48;101693.03;;;20.36;65.35
60437;BME280;46289;51.992;4.498;2023-07-13T07:52:54;101698.44;;;20.62;65.78
60437;BME280;46289;51.992;4.498;2023-07-13T07:55:00;101698.94;;;20.54;65.54
60437;BME280;46289;51.992;4.498;2023-07-13T07:57:11;101705.25;;;22.02;61.91
60437;BME280;46289;51.992;4.498;2023-07-13T07:59:19;101699.94;;;21.78;61.60
60437;BME280;46289;51.992;4.498;2023-07-13T08:01:29;101702.78;;;21.51;61.81
60437;BME280;46289;51.992;4.498;2023-07-13T08:03:40;101714.13;;;20.79;63.64
60437;BME280;46289;51.992;4.498;2023-07-13T08:05:48;101698.44;;;20.35;64.08
60437;BME280;46289;51.992;4.498;2023-07-13T08:07:56;101704.88;;;21.22;62.16
60437;BME280;46289;51.992;4.498;2023-07-13T08:10:01;101697.91;;;21.69;59.60
60437;BME280;46289;51.992;4.498;2023-07-13T08:12:07;101698.50;;;22.45;58.15
60437;BME280;46289;51.992;4.498;2023-07-13T08:14:15;101702.97;;;22.91;56.13
60437;BME280;46289;51.992;4.498;2023-07-13T08:16:21;101685.59;;;22.50;56.94
60437;BME280;46289;51.992;4.498;2023-07-13T08:18:26;101707.69;;;22.29;57.55
60437;BME280;46289;51.992;4.498;2023-07-13T08:20:36;101690.97;;;22.14;58.35
60437;BME280;46289;51.992;4.498;2023-07-13T08:22:42;101699.84;;;22.50;56.53
60437;BME280;46289;51.992;4.498;2023-07-13T08:24:49;101703.09;;;22.07;58.48
60437;BME280;46289;51.992;4.498;2023-07-13T08:27:00;101701.91;;;21.87;58.96
60437;BME280;46289;51.992;4.498;2023-07-13T08:29:06;101699.75;;;21.19;61.77
60437;BME280;46289;51.992;4.498;2023-07-13T08:31:11;101706.94;;;20.93;62.20
60437;BME280;46289;51.992;4.498;2023-07-13T08:33:17;101703.19;;;21.21;62.06
60437;BME280;46289;51.992;4.498;2023-07-13T08:35:22;101710.28;;;21.09;62.43
60437;BME280;46289;51.992;4.498;2023-07-13T08:37:30;101714.03;;;20.94;62.40
60437;BME280;46289;51.992;4.498;2023-07-13T08:39:36;101717.63;;;20.93;66.62
60437;BME280;46289;51.992;4.498;2023-07-13T08:41:43;101712.09;;;20.96;66.49
60437;BME280;46289;51.992;4.498;2023-07-13T08:43:51;101715.84;;;20.93;65.27
60437;BME280;46289;51.992;4.498;2023-07-13T08:46:01;101713.47;;;20.63;65.02
60437;BME280;46289;51.992;4.498;2023-07-13T08:48:11;101710.13;;;20.47;64.49
60437;BME280;46289;51.992;4.498;2023-07-13T08:50:19;101717.97;;;20.23;63.92
60437;BME280;46289;51.992;4.498;2023-07-13T08:52:35;101711.13;;;20.18;64.35
60437;BME280;46289;51.992;4.498;2023-07-13T08:54:44;101714.09;;;20.14;65.77
60437;BME280;46289;51.992;4.498;2023-07-13T08:56:52;101710.81;;;20.89;62.76
60437;BME280;46289;51.992;4.498;2023-07-13T08:59:00;101708.38;;;21.72;58.60
60437;BME280;46289;51.992;4.498;2023-07-13T09:01:15;101715.13;;;22.02;57.18
60437;BME280;46289;51.992;4.498;2023-07-13T09:03:27;101716.72;;;22.75;55.66
60437;BME280;46289;51.992;4.498;2023-07-13T09:05:38;101712.31;;;22.74;56.14
60437;BME280;46289;51.992;4.498;2023-07-13T09:08:00;101715.59;;;22.77;54.51
60437;BME280;46289;51.992;4.498;2023-07-13T09:10:15;101718.41;;;22.76;55.34
60437;BME280;46289;51.992;4.498;2023-07-13T09:12:27;101732.41;;;21.61;58.68
60437;BME280;46289;51.992;4.498;2023-07-13T09:14:44;101732.34;;;21.37;60.49
60437;BME280;46289;51.992;4.498;2023-07-13T09:16:51;101740.88;;;21.55;60.88
60437;BME280;46289;51.992;4.498;2023-07-13T09:19:00;101729.91;;;21.46;61.55
60437;BME280;46289;51.992;4.498;2023-07-13T09:21:11;101724.38;;;21.61;61.57
60437;BME280;46289;51.992;4.498;2023-07-13T09:23:21;101726.38;;;22.42;60.54
60437;BME280;46289;51.992;4.498;2023-07-13T09:25:31;101741.34;;;21.36;61.88
60437;BME280;46289;51.992;4.498;2023-07-13T09:27:40;101740.19;;;20.63;60.85
60437;BME280;46289;51.992;4.498;2023-07-13T09:29:51;101742.09;;;20.21;62.72
60437;BME280;46289;51.992;4.498;2023-07-13T09:32:00;101739.09;;;20.13;67.31
60437;BME280;46289;51.992;4.498;2023-07-13T09:34:09;101740.63;;;20.30;70.46
60437;BME280;46289;51.992;4.498;2023-07-13T09:36:19;101740.81;;;19.87;71.01
60437;BME280;46289;51.992;4.498;2023-07-13T09:38:29;101747.47;;;19.94;71.08
60437;BME280;46289;51.992;4.498;2023-07-13T09:40:44;101753.63;;;19.94;72.33
60437;BME280;46289;51.992;4.498;2023-07-13T09:42:52;101755.81;;;19.75;71.85
60437;BME280;46289;51.992;4.498;2023-07-13T09:45:00;101756.09;;;19.70;71.78
60437;BME280;46289;51.992;4.498;2023-07-13T09:47:16;101764.56;;;21.10;70.97
60437;BME280;46289;51.992;4.498;2023-07-13T09:49:24;101756.63;;;21.83;70.38
60437;BME280;46289;51.992;4.498;2023-07-13T09:51:30;101748.13;;;22.13;66.81
60437;BME280;46289;51.992;4.498;2023-07-13T09:53:41;101759.41;;;22.06;66.00
60437;BME280;46289;51.992;4.498;2023-07-13T09:55:48;101764.19;;;22.13;65.76
60437;BME280;46289;51.992;4.498;2023-07-13T09:57:55;101759.59;;;22.16;65.76
60437;BME280;46289;51.992;4.498;2023-07-13T09:59:57;101746.19;;;22.86;62.57
60437;BME280;46289;51.992;4.498;2023-07-13T10:02:23;101755.38;;;23.17;60.49
60437;BME280;46289;51.992;4.498;2023-07-13T10:04:31;101763.47;;;23.95;60.55
60437;BME280;46289;51.992;4.498;2023-07-13T10:06:38;101751.09;;;24.15;58.66
60437;BME280;46289;51.992;4.498;2023-07-13T10:08:52;101756.78;;;23.89;57.51
60437;BME280;46289;51.992;4.498;2023-07-13T10:10:59;101767.09;;;24.37;57.37
60437;BME280;46289;51.992;4.498;2023-07-13T10:13:24;101769.91;;;24.36;58.09
60437;BME280;46289;51.992;4.498;2023-07-13T10:15:31;101769.47;;;23.87;56.25
60437;BME280;46289;51.992;4.498;2023-07-13T10:17:39;101779.88;;;23.47;56.65
60437;BME280;46289;51.992;4.498;2023-07-13T10:19:48;101782.59;;;24.13;55.92
60437;BME280;46289;51.992;4.498;2023-07-13T10:21:55;101788.28;;;23.64;55.92
60437;BME280;46289;51.992;4.498;2023-07-13T10:24:10;101778.16;;;23.57;56.80
60437;BME280;46289;51.992;4.498;2023-07-13T10:26:21;101781.56;;;23.81;56.21
60437;BME280;46289;51.992;4.498;2023-07-13T10:28:31;101784.63;;;23.09;58.06
60437;BME280;46289;51.992;4.498;2023-07-13T10:30:41;101798.00;;;22.51;58.18
60437;BME280;46289;51.992;4.498;2023-07-13T10:32:49;101801.16;;;21.84;59.55
60437;BME280;46289;51.992;4.498;2023-07-13T10:34:56;101804.41;;;21.64;58.93
60437;BME280;46289;51.992;4.498;2023-07-13T10:37:05;101789.66;;;22.78;57.91
60437;BME280;46289;51.992;4.498;2023-07-13T10:39:23;101802.09;;;22.79;57.28
60437;BME280;46289;51.992;4.498;2023-07-13T10:41:33;101796.22;;;22.74;54.37
60437;BME280;46289;51.992;4.498;2023-07-13T10:43:43;101788.50;;;23.84;52.45
60437;BME280;46289;51.992;4.498;2023-07-13T10:45:48;101801.38;;;24.13;51.64
60437;BME280;46289;51.992;4.498;2023-07-13T10:47:56;101796.81;;;23.81;51.84
60437;BME280;46289;51.992;4.498;2023-07-13T10:50:03;101796.09;;;23.67;50.94
60437;BME280;46289;51.992;4.498;2023-07-13T10:52:20;101800.53;;;24.12;50.58
60437;BME280;46289;51.992;4.498;2023-07-13T10:54:43;101804.41;;;23.31;51.53
60437;BME280;46289;51.992;4.498;2023-07-13T10:56:51;101804.97;;;23.00;52.69
60437;BME280;46289;51.992;4.498;2023-07-13T10:59:10;101800.72;;;23.32;51.63
60437;BME280;46289;51.992;4.498;2023-07-13T11:01:15;101807.22;;;24.18;50.04
60437;BME280;46289;51.992;4.498;2023-07-13T11:03:23;101807.19;;;24.29;49.68
60437;BME280;46289;51.992;4.498;2023-07-13T11:05:33;101809.81;;;24.40;49.35
60437;BME280;46289;51.992;4.498;2023-07-13T11:07:55;101814.28;;;24.19;48.96
60437;BME280;46289;51.992;4.498;2023-07-13T11:12:53;101807.19;;;24.29;49.61